sensor_id;sensor_type;location;lat;lon;timestamp;pressure;altitude;pressure_sealevel;temperature;humidity
70445;BME280;57902;49.638;11.070;2023-03-25T00:00:09;97545.59;;;7.64;100.00
70445;BME280;57902;49.638;11.070;2023-03-25T00:02:47;97543.91;;;7.63;100.00
70445;BME280;57902;49.638;11.070;2023-03-25T00:05:16;97542.25;;;7.62;100.00
70445;BME280;57902;49.638;11.070;2023-03-25T00:07:44;97534.91;;;7.50;100.00
70445;BME280;57902;49.638;11.070;2023-03-25T00:10:12;97525.66;;;7.44;100.00
70445;BME280;57902;49.638;11.070;2023-03-25T00:12:39;97521.44;;;7.43;100.00
70445;BME280;57902;49.638;11.070;2023-03-25T00:15:07;97524.81;;;7.44;100.00
70445;BME280;57902;49.638;11.070;2023-03-25T00:17:34;97525.00;;;7.38;100.00
70445;BME280;57902;49.638;11.070;2023-03-25T00:20:03;97517.56;;;7.30;100.00
70445;BME280;57902;49.638;11.070;2023-03-25T00:22:37;97510.81;;;7.26;100.00
70445;BME280;57902;49.638;11.070;2023-03-25T00:25:09;97512.34;;;7.33;100.00
70445;BME280;57902;49.638;11.070;2023-03-25T00:27:35;97503.72;;;7.34;100.00
70445;BME280;57902;49.638;11.070;2023-03-25T00:30:03;97501.16;;;7.34;100.00
70445;BME280;57902;49.638;11.070;2023-03-25T00:32:30;97499.31;;;7.39;100.00
70445;BME280;57902;49.638;11.070;2023-03-25T00:34:57;97495.16;;;7.35;100.00
70445;BME280;57902;49.638;11.070;2023-03-25T00:37:25;97486.66;;;7.34;100.00
70445;BME280;57902;49.638;11.070;2023-03-25T00:39:52;97482.34;;;7.35;100.00
70445;BME280;57902;49.638;11.070;2023-03-25T00:42:19;97479.78;;;7.35;100.00
70445;BME280;57902;49.638;11.070;2023-03-25T00:44:54;97477.94;;;7.40;100.00
70445;BME280;57902;49.638;11.070;2023-03-25T00:47:20;97473.53;;;7.44;100.00
70445;BME280;57902;49.638;11.070;2023-03-25T00:49:48;97469.19;;;7.47;100.00
70445;BME280;57902;49.638;11.070;2023-03-25T00:52:15;97472.47;;;7.51;100.00
70445;BME280;57902;49.638;11.070;2023-03-25T00:54:42;97468.88;;;7.57;100.00
70445;BME280;57902;49.638;11.070;2023-03-25T00:57:09;97472.44;;;7.52;100.00
70445;BME280;57902;49.638;11.070;2023-03-25T00:59:35;97463.94;;;7.50;100.00
70445;BME280;57902;49.638;11.070;2023-03-25T01:02:02;97474.81;;;7.59;100.00
70445;BME280;57902;49.638;11.070;2023-03-25T01:04:29;97503.97;;;7.56;100.00
70445;BME280;57902;49.638;11.070;2023-03-25T01:06:55;97494.53;;;7.57;100.00
70445;BME280;57902;49.638;11.070;2023-03-25T01:09:22;97497.94;;;7.57;100.00
70445;BME280;57902;49.638;11.070;2023-03-25T01:11:48;97492.84;;;7.56;100.00
70445;BME280;57902;49.638;11.070;2023-03-25T01:14:18;97485.78;;;7.64;100.00
70445;BME280;57902;49.638;11.070;2023-03-25T01:16:45;97482.44;;;7.60;100.00
70445;BME280;57902;49.638;11.070;2023-03-25T01:19:12;97497.69;;;7.65;100.00
70445;BME280;57902;49.638;11.070;2023-03-25T01:21:40;97492.44;;;7.69;100.00
70445;BME280;57902;49.638;11.070;2023-03-25T01:24:09;97480.03;;;7.56;100.00
70445;BME280;57902;49.638;11.070;2023-03-25T01:26:35;97478.22;;;7.59;100.00
70445;BME280;57902;49.638;11.070;2023-03-25T01:29:03;97475.66;;;7.59;100.00
70445;BME280;57902;49.638;11.070;2023-03-25T01:31:31;97467.88;;;7.62;100.00
70445;BME280;57902;49.638;11.070;2023-03-25T01:33:58;97473.13;;;7.58;100.00
70445;BME280;57902;49.638;11.070;2023-03-25T01:36:25;97472.28;;;7.57;100.00
70445;BME280;57902;49.638;11.070;2023-03-25T01:38:56;97472.13;;;7.62;100.00
70445;BME280;57902;49.638;11.070;2023-03-25T01:41:26;97470.63;;;7.56;100.00
70445;BME280;57902;49.638;11.070;2023-03-25T01:46:40;97464.97;;;7.45;100.00
70445;BME280;57902;49.638;11.070;2023-03-25T01:49:20;97451.44;;;7.40;100.00
70445;BME280;57902;49.638;11.070;2023-03-25T01:51:54;97454.88;;;7.40;100.00
70445;BME280;57902;49.638;11.070;2023-03-25T01:54:22;97462.81;;;7.31;100.00
70445;BME280;57902;49.638;11.070;2023-03-25T01:56:49;97464.59;;;7.29;100.00
70445;BME280;57902;49.638;11.070;2023-03-25T01:59:19;97459.66;;;7.23;100.00
70445;BME280;57902;49.638;11.070;2023-03-25T02:01:50;97452.16;;;7.16;100.00
70445;BME280;57902;49.638;11.070;2023-03-25T02:04:36;97451.34;;;7.14;100.00
70445;BME280;57902;49.638;11.070;2023-03-25T02:07:06;97453.94;;;7.13;100.00
70445;BME280;57902;49.638;11.070;2023-03-25T02:09:37;97450.50;;;7.14;100.00
70445;BME280;57902;49.638;11.070;2023-03-25T02:12:04;97444.50;;;7.13;100.00
70445;BME280;57902;49.638;11.070;2023-03-25T02:14:33;97443.03;;;7.06;100.00
70445;BME280;57902;49.638;11.070;2023-03-25T02:17:22;97443.00;;;7.08;100.00
70445;BME280;57902;49.638;11.070;2023-03-25T02:28:32;97442.59;;;6.92;100.00
70445;BME280;57902;49.638;11.070;2023-03-25T02:31:29;97447.72;;;6.92;100.00
70445;BME280;57902;49.638;11.070;2023-03-25T02:39:59;97462.91;;;6.98;100.00
70445;BME280;57902;49.638;11.070;2023-03-25T02:42:33;97458.56;;;7.00;100.00
70445;BME280;57902;49.638;11.070;2023-03-25T02:45:22;97461.00;;;7.05;100.00
70445;BME280;57902;49.638;11.070;2023-03-25T02:47:54;97466.97;;;7.05;100.00
70445;BME280;57902;49.638;11.070;2023-03-25T02:50:27;97461.91;;;7.04;100.00
70445;BME280;57902;49.638;11.070;2023-03-25T02:53:00;97467.69;;;7.10;100.00
70445;BME280;57902;49.638;11.070;2023-03-25T02:55:29;97464.97;;;7.15;100.00
70445;BME280;57902;49.638;11.070;2023-03-25T02:58:01;97466.72;;;7.14;100.00
70445;BME280;57902;49.638;11.070;2023-03-25T03:00:32;97476.31;;;7.08;100.00
70445;BME280;57902;49.638;11.070;2023-03-25T03:03:05;97474.63;;;7.07;100.00
70445;BME280;57902;49.638;11.070;2023-03-25T03:05:34;97472.03;;;7.08;100.00
70445;BME280;57902;49.638;11.070;2023-03-25T03:24:45;97471.88;;;7.13;100.00
70445;BME280;57902;49.638;11.070;2023-03-25T03:27:25;97473.63;;;7.12;100.00
70445;BME280;57902;49.638;11.070;2023-03-25T03:30:19;97471.19;;;7.08;100.00
70445;BME280;57902;49.638;11.070;2023-03-25T03:33:02;97471.94;;;7.11;100.00
70445;BME280;57902;49.638;11.070;2023-03-25T03:35:40;97460.91;;;7.09;100.00
70445;BME280;57902;49.638;11.070;2023-03-25T03:38:12;97475.38;;;7.10;100.00
70445;BME280;57902;49.638;11.070;2023-03-25T03:40:43;97479.63;;;7.11;100.00
70445;BME280;57902;49.638;11.070;2023-03-25T03:43:18;97475.47;;;7.07;100.00
70445;BME280;57902;49.638;11.070;2023-03-25T03:45:52;97483.16;;;7.07;100.00
70445;BME280;57902;49.638;11.070;2023-03-25T03:48:28;97477.16;;;7.08;100.00
70445;BME280;57902;49.638;11.070;2023-03-25T03:51:06;97476.28;;;7.09;100.00
70445;BME280;57902;49.638;11.070;2023-03-25T03:53:41;97478.66;;;7.15;100.00
70445;BME280;57902;49.638;11.070;2023-03-25T03:56:12;97477.00;;;7.13;100.00
70445;BME280;57902;49.638;11.070;2023-03-25T03:58:42;97478.66;;;7.15;100.00
70445;BME280;57902;49.638;11.070;2023-03-25T04:01:32;97473.44;;;7.18;100.00
70445;BME280;57902;49.638;11.070;2023-03-25T04:04:03;97464.25;;;7.11;100.00
70445;BME280;57902;49.638;11.070;2023-03-25T04:06:43;97465.03;;;7.13;100.00
70445;BME280;57902;49.638;11.070;2023-03-25T04:09:22;97468.66;;;7.06;100.00
70445;BME280;57902;49.638;11.070;2023-03-25T04:12:01;97477.38;;;7.00;100.00
70445;BME280;57902;49.638;11.070;2023-03-25T04:14:29;97490.22;;;6.99;100.00
70445;BME280;57902;49.638;11.070;2023-03-25T04:16:55;97483.41;;;6.98;100.00
70445;BME280;57902;49.638;11.070;2023-03-25T04:19:21;97492.75;;;7.00;100.00
70445;BME280;57902;49.638;11.070;2023-03-25T04:21:49;97489.72;;;7.16;100.00
70445;BME280;57902;49.638;11.070;2023-03-25T04:24:16;97482.28;;;7.08;100.00
70445;BME280;57902;49.638;11.070;2023-03-25T04:26:45;97481.44;;;7.08;100.00
70445;BME280;57902;49.638;11.070;2023-03-25T04:29:12;97493.25;;;7.12;100.00
70445;BME280;57902;49.638;11.070;2023-03-25T04:31:39;97487.44;;;7.07;100.00
70445;BME280;57902;49.638;11.070;2023-03-25T04:34:12;97494.22;;;7.09;100.00
70445;BME280;57902;49.638;11.070;2023-03-25T04:36:41;97493.47;;;7.04;100.00
70445;BME280;57902;49.638;11.070;2023-03-25T04:39:16;97493.72;;;6.96;100.00
70445;BME280;57902;49.638;11.070;2023-03-25T04:41:49;97509.00;;;6.99;100.00
70445;BME280;57902;49.638;11.070;2023-03-25T04:44:16;97505.66;;;6.96;100.00
70445;BME280;57902;49.638;11.070;2023-03-25T04:46:43;97505.47;;;7.04;100.00
70445;BME280;57902;49.638;11.070;2023-03-25T04:49:18;97508.03;;;7.04;100.00
70445;BME280;57902;49.638;11.070;2023-03-25T04:51:47;97503.00;;;7.00;100.00
70445;BME280;57902;49.638;11.070;2023-03-25T04:54:20;97499.47;;;7.03;100.00
70445;BME280;57902;49.638;11.070;2023-03-25T04:56:47;97504.47;;;7.09;100.00
70445;BME280;57902;49.638;11.070;2023-03-25T04:59:19;97510.19;;;7.17;99.64
70445;BME280;57902;49.638;11.070;2023-03-25T05:01:46;97515.41;;;7.14;100.00
70445;BME280;57902;49.638;11.070;2023-03-25T05:04:17;97511.59;;;6.98;100.00
70445;BME280;57902;49.638;11.070;2023-03-25T05:06:46;97511.38;;;7.06;100.00
70445;BME280;57902;49.638;11.070;2023-03-25T05:09:16;97515.00;;;6.98;100.00
70445;BME280;57902;49.638;11.070;2023-03-25T05:11:45;97519.94;;;7.06;100.00
70445;BME280;57902;49.638;11.070;2023-03-25T05:14:13;97526.63;;;7.10;100.00
70445;BME280;57902;49.638;11.070;2023-03-25T05:16:40;97526.72;;;7.07;98.77
70445;BME280;57902;49.638;11.070;2023-03-25T05:19:07;97529.28;;;7.07;97.63
70445;BME280;57902;49.638;11.070;2023-03-25T05:21:34;97536.00;;;7.11;98.32
70445;BME280;57902;49.638;11.070;2023-03-25T05:24:05;97537.66;;;7.14;97.10
70445;BME280;57902;49.638;11.070;2023-03-25T05:26:33;97536.47;;;7.26;95.51
70445;BME280;57902;49.638;11.070;2023-03-25T05:29:04;97541.84;;;7.16;96.21
70445;BME280;57902;49.638;11.070;2023-03-25T05:31:31;97540.06;;;7.18;96.08
70445;BME280;57902;49.638;11.070;2023-03-25T05:33:57;97533.25;;;7.17;95.82
70445;BME280;57902;49.638;11.070;2023-03-25T05:36:24;97538.44;;;7.16;95.77
70445;BME280;57902;49.638;11.070;2023-03-25T05:38:52;97553.63;;;7.22;94.98
70445;BME280;57902;49.638;11.070;2023-03-25T05:41:25;97545.25;;;7.17;96.27
70445;BME280;57902;49.638;11.070;2023-03-25T05:44:06;97545.94;;;7.22;94.92
70445;BME280;57902;49.638;11.070;2023-03-25T05:46:33;97552.97;;;7.15;94.68
70445;BME280;57902;49.638;11.070;2023-03-25T05:49:02;97560.50;;;7.22;94.82
70445;BME280;57902;49.638;11.070;2023-03-25T05:51:31;97565.78;;;7.15;95.49
70445;BME280;57902;49.638;11.070;2023-03-25T05:53:59;97569.19;;;7.16;94.51
70445;BME280;57902;49.638;11.070;2023-03-25T05:56:27;97566.66;;;7.14;95.21
70445;BME280;57902;49.638;11.070;2023-03-25T05:58:54;97579.56;;;7.11;93.25
70445;BME280;57902;49.638;11.070;2023-03-25T06:01:22;97584.69;;;7.11;91.60
70445;BME280;57902;49.638;11.070;2023-03-25T06:03:59;97588.03;;;7.13;92.61
70445;BME280;57902;49.638;11.070;2023-03-25T06:06:30;97578.63;;;7.15;91.84
70445;BME280;57902;49.638;11.070;2023-03-25T06:08:57;97573.41;;;7.18;90.49
70445;BME280;57902;49.638;11.070;2023-03-25T06:11:24;97583.59;;;7.20;90.06
70445;BME280;57902;49.638;11.070;2023-03-25T06:13:51;97582.88;;;7.15;90.54
70445;BME280;57902;49.638;11.070;2023-03-25T06:16:22;97589.53;;;7.22;91.26
70445;BME280;57902;49.638;11.070;2023-03-25T06:18:52;97587.69;;;7.27;91.35
70445;BME280;57902;49.638;11.070;2023-03-25T06:21:30;97582.09;;;7.13;91.15
70445;BME280;57902;49.638;11.070;2023-03-25T06:24:00;97589.75;;;7.14;91.42
70445;BME280;57902;49.638;11.070;2023-03-25T06:26:27;97590.66;;;7.12;92.27
70445;BME280;57902;49.638;11.070;2023-03-25T06:28:54;97579.78;;;7.04;92.70
70445;BME280;57902;49.638;11.070;2023-03-25T06:31:22;97581.63;;;6.98;92.47
70445;BME280;57902;49.638;11.070;2023-03-25T06:33:52;97576.38;;;7.03;93.31
70445;BME280;57902;49.638;11.070;2023-03-25T06:36:19;97574.78;;;6.99;93.07
70445;BME280;57902;49.638;11.070;2023-03-25T06:38:47;97572.19;;;7.00;92.36
70445;BME280;57902;49.638;11.070;2023-03-25T06:41:15;97575.44;;;7.06;92.55
70445;BME280;57902;49.638;11.070;2023-03-25T06:43:46;97568.63;;;7.05;93.07
70445;BME280;57902;49.638;11.070;2023-03-25T06:46:16;97578.13;;;7.01;93.09
70445;BME280;57902;49.638;11.070;2023-03-25T06:48:42;97590.63;;;7.13;93.56
70445;BME280;57902;49.638;11.070;2023-03-25T06:51:09;97587.91;;;7.20;93.18
70445;BME280;57902;49.638;11.070;2023-03-25T06:53:35;97589.56;;;7.21;93.66
70445;BME280;57902;49.638;11.070;2023-03-25T06:56:02;97589.25;;;7.33;93.58
70445;BME280;57902;49.638;11.070;2023-03-25T06:58:31;97588.81;;;7.17;96.79
70445;BME280;57902;49.638;11.070;2023-03-25T07:01:01;97587.00;;;7.21;96.25
70445;BME280;57902;49.638;11.070;2023-03-25T07:03:33;97593.00;;;7.21;97.38
70445;BME280;57902;49.638;11.070;2023-03-25T07:06:02;97591.91;;;7.30;97.41
70445;BME280;57902;49.638;11.070;2023-03-25T07:08:29;97592.69;;;7.32;97.06
70445;BME280;57902;49.638;11.070;2023-03-25T07:11:05;97590.00;;;7.36;97.66
70445;BME280;57902;49.638;11.070;2023-03-25T07:13:35;97593.59;;;7.29;98.03
70445;BME280;57902;49.638;11.070;2023-03-25T07:16:02;97589.56;;;7.21;98.18
70445;BME280;57902;49.638;11.070;2023-03-25T07:18:29;97597.13;;;7.27;95.57
70445;BME280;57902;49.638;11.070;2023-03-25T07:20:55;97590.34;;;7.24;95.46
70445;BME280;57902;49.638;11.070;2023-03-25T07:23:22;97589.94;;;7.38;93.47
70445;BME280;57902;49.638;11.070;2023-03-25T07:25:48;97590.13;;;7.32;92.43
70445;BME280;57902;49.638;11.070;2023-03-25T07:28:15;97590.75;;;7.40;91.23
70445;BME280;57902;49.638;11.070;2023-03-25T07:30:42;97596.03;;;7.34;94.00
70445;BME280;57902;49.638;11.070;2023-03-25T07:33:09;97584.81;;;7.38;92.29
70445;BME280;57902;49.638;11.070;2023-03-25T07:35:35;97588.81;;;7.48;89.63
70445;BME280;57902;49.638;11.070;2023-03-25T07:38:02;97586.16;;;7.51;88.95
70445;BME280;57902;49.638;11.070;2023-03-25T07:40:29;97598.63;;;7.64;88.01
70445;BME280;57902;49.638;11.070;2023-03-25T07:42:55;97595.00;;;7.71;87.96
70445;BME280;57902;49.638;11.070;2023-03-25T07:45:22;97603.25;;;7.81;87.36
70445;BME280;57902;49.638;11.070;2023-03-25T07:47:50;97598.63;;;7.94;87.81
70445;BME280;57902;49.638;11.070;2023-03-25T07:50:20;97602.88;;;7.95;86.74
70445;BME280;57902;49.638;11.070;2023-03-25T07:52:50;97597.06;;;7.88;86.81
70445;BME280;57902;49.638;11.070;2023-03-25T07:55:16;97594.19;;;7.99;84.99
70445;BME280;57902;49.638;11.070;2023-03-25T07:57:43;97596.53;;;8.06;85.27
70445;BME280;57902;49.638;11.070;2023-03-25T08:00:10;97606.50;;;8.16;86.62
70445;BME280;57902;49.638;11.070;2023-03-25T08:02:37;97596.84;;;8.24;85.39
70445;BME280;57902;49.638;11.070;2023-03-25T08:05:07;97599.31;;;8.27;85.75
70445;BME280;57902;49.638;11.070;2023-03-25T08:07:34;97601.00;;;8.28;84.37
70445;BME280;57902;49.638;11.070;2023-03-25T08:10:01;97597.81;;;8.20;84.60
70445;BME280;57902;49.638;11.070;2023-03-25T08:12:27;97607.31;;;8.46;82.31
70445;BME280;57902;49.638;11.070;2023-03-25T08:14:54;97608.09;;;8.48;82.91
70445;BME280;57902;49.638;11.070;2023-03-25T08:17:21;97608.09;;;8.48;82.63
70445;BME280;57902;49.638;11.070;2023-03-25T08:19:48;97601.91;;;8.54;84.00
70445;BME280;57902;49.638;11.070;2023-03-25T08:22:14;97605.13;;;8.61;82.13
70445;BME280;57902;49.638;11.070;2023-03-25T08:24:41;97585.00;;;8.73;78.99
70445;BME280;57902;49.638;11.070;2023-03-25T08:27:07;97603.03;;;8.72;81.03
70445;BME280;57902;49.638;11.070;2023-03-25T08:29:43;97600.78;;;8.88;82.39
70445;BME280;57902;49.638;11.070;2023-03-25T08:32:09;97593.50;;;9.01;81.63
70445;BME280;57902;49.638;11.070;2023-03-25T08:34:36;97602.00;;;9.03;79.13
70445;BME280;57902;49.638;11.070;2023-03-25T08:37:05;97603.13;;;8.96;77.42
70445;BME280;57902;49.638;11.070;2023-03-25T08:39:35;97600.94;;;9.08;77.62
70445;BME280;57902;49.638;11.070;2023-03-25T08:42:08;97596.22;;;9.21;76.67
70445;BME280;57902;49.638;11.070;2023-03-25T08:44:34;97596.06;;;9.26;76.70
70445;BME280;57902;49.638;11.070;2023-03-25T08:47:01;97594.06;;;9.34;76.93
70445;BME280;57902;49.638;11.070;2023-03-25T08:49:28;97595.13;;;9.28;76.87
70445;BME280;57902;49.638;11.070;2023-03-25T08:51:55;97597.88;;;9.48;76.74
70445;BME280;57902;49.638;11.070;2023-03-25T08:54:24;97588.25;;;9.53;76.33
70445;BME280;57902;49.638;11.070;2023-03-25T08:56:53;97594.44;;;9.23;73.96
70445;BME280;57902;49.638;11.070;2023-03-25T08:59:20;97596.19;;;9.46;74.57
70445;BME280;57902;49.638;11.070;2023-03-25T09:01:47;97600.72;;;9.63;73.02
70445;BME280;57902;49.638;11.070;2023-03-25T09:04:13;97591.91;;;9.71;70.94
70445;BME280;57902;49.638;11.070;2023-03-25T09:06:40;97588.44;;;9.94;71.13
70445;BME280;57902;49.638;11.070;2023-03-25T09:09:14;97586.53;;;10.21;69.56
70445;BME280;57902;49.638;11.070;2023-03-25T09:11:41;97587.91;;;10.52;71.28
70445;BME280;57902;49.638;11.070;2023-03-25T09:14:08;97589.03;;;10.88;68.69
70445;BME280;57902;49.638;11.070;2023-03-25T09:16:35;97582.31;;;11.25;67.88
70445;BME280;57902;49.638;11.070;2023-03-25T09:19:02;97583.78;;;11.49;64.96
70445;BME280;57902;49.638;11.070;2023-03-25T09:21:31;97572.50;;;11.90;63.02
70445;BME280;57902;49.638;11.070;2023-03-25T09:23:58;97569.44;;;12.01;61.29
70445;BME280;57902;49.638;11.070;2023-03-25T09:26:25;97565.94;;;11.83;64.64
70445;BME280;57902;49.638;11.070;2023-03-25T09:28:52;97571.41;;;11.77;62.90
70445;BME280;57902;49.638;11.070;2023-03-25T09:31:21;97572.50;;;11.71;60.84
70445;BME280;57902;49.638;11.070;2023-03-25T09:33:48;97562.31;;;11.68;60.67
70445;BME280;57902;49.638;11.070;2023-03-25T09:36:15;97566.72;;;11.47;61.81
70445;BME280;57902;49.638;11.070;2023-03-25T09:38:41;97559.94;;;11.25;61.34
70445;BME280;57902;49.638;11.070;2023-03-25T09:41:39;97565.50;;;11.16;62.61
70445;BME280;57902;49.638;11.070;2023-03-25T09:44:19;97561.75;;;11.02;60.81
70445;BME280;57902;49.638;11.070;2023-03-25T09:46:47;97565.75;;;10.89;61.05
70445;BME280;57902;49.638;11.070;2023-03-25T09:49:20;97571.56;;;10.94;60.40
70445;BME280;57902;49.638;11.070;2023-03-25T09:51:50;97569.44;;;10.83;59.84
70445;BME280;57902;49.638;11.070;2023-03-25T09:54:24;97566.09;;;11.02;59.32
70445;BME280;57902;49.638;11.070;2023-03-25T09:56:56;97571.78;;;11.29;59.99
70445;BME280;57902;49.638;11.070;2023-03-25T09:59:36;97569.94;;;11.52;61.07
70445;BME280;57902;49.638;11.070;2023-03-25T10:08:04;97570.41;;;12.17;58.36
70445;BME280;57902;49.638;11.070;2023-03-25T10:10:51;97554.56;;;12.06;57.39
70445;BME280;57902;49.638;11.070;2023-03-25T10:14:06;97562.03;;;12.12;56.22
70445;BME280;57902;49.638;11.070;2023-03-25T10:16:59;97554.16;;;11.96;58.04
70445;BME280;57902;49.638;11.070;2023-03-25T10:22:26;97558.75;;;11.89;59.38
70445;BME280;57902;49.638;11.070;2023-03-25T10:25:03;97557.84;;;11.90;58.62
70445;BME280;57902;49.638;11.070;2023-03-25T10:27:36;97544.84;;;12.11;58.08
70445;BME280;57902;49.638;11.070;2023-03-25T10:30:17;97537.25;;;12.08;56.35
70445;BME280;57902;49.638;11.070;2023-03-25T10:37:48;97541.88;;;12.01;56.53
70445;BME280;57902;49.638;11.070;2023-03-25T10:40:27;97538.31;;;11.85;57.72
70445;BME280;57902;49.638;11.070;2023-03-25T10:43:24;97535.41;;;11.35;63.08
70445;BME280;57902;49.638;11.070;2023-03-25T10:45:56;97549.34;;;11.31;67.64
70445;BME280;57902;49.638;11.070;2023-03-25T10:48:26;97541.28;;;11.18;72.38
70445;BME280;57902;49.638;11.070;2023-03-25T10:51:12;97535.44;;;11.15;73.76
70445;BME280;57902;49.638;11.070;2023-03-25T10:53:41;97538.88;;;11.34;72.72
70445;BME280;57902;49.638;11.070;2023-03-25T10:56:16;97543.97;;;11.36;69.73
70445;BME280;57902;49.638;11.070;2023-03-25T10:58:48;97535.53;;;11.32;69.05
70445;BME280;57902;49.638;11.070;2023-03-25T11:01:18;97530.50;;;11.29;69.54
70445;BME280;57902;49.638;11.070;2023-03-25T11:03:49;97530.38;;;11.32;70.59
70445;BME280;57902;49.638;11.070;2023-03-25T11:06:25;97519.75;;;11.19;70.49
70445;BME280;57902;49.638;11.070;2023-03-25T11:11:44;97508.81;;;10.94;69.82
70445;BME280;57902;49.638;11.070;2023-03-25T11:14:12;97522.78;;;10.48;71.43
70445;BME280;57902;49.638;11.070;2023-03-25T11:19:16;97546.75;;;10.28;75.22
70445;BME280;57902;49.638;11.070;2023-03-25T11:21:52;97557.97;;;10.05;77.55
70445;BME280;57902;49.638;11.070;2023-03-25T11:24:31;97582.28;;;9.52;81.85
70445;BME280;57902;49.638;11.070;2023-03-25T11:26:59;97592.69;;;8.48;91.56
70445;BME280;57902;49.638;11.070;2023-03-25T11:29:26;97590.72;;;8.56;88.65
70445;BME280;57902;49.638;11.070;2023-03-25T11:32:14;97564.97;;;8.03;93.90
70445;BME280;57902;49.638;11.070;2023-03-25T11:34:46;97565.06;;;8.00;93.93
70445;BME280;57902;49.638;11.070;2023-03-25T11:37:21;97557.03;;;7.82;95.54
70445;BME280;57902;49.638;11.070;2023-03-25T11:39:52;97548.31;;;7.88;99.24
70445;BME280;57902;49.638;11.070;2023-03-25T11:42:27;97533.72;;;7.90;99.48
70445;BME280;57902;49.638;11.070;2023-03-25T11:44:58;97533.78;;;8.15;100.00
70445;BME280;57902;49.638;11.070;2023-03-25T11:47:29;97513.97;;;8.47;100.00
70445;BME280;57902;49.638;11.070;2023-03-25T11:49:57;97521.72;;;8.71;100.00
70445;BME280;57902;49.638;11.070;2023-03-25T11:52:26;97521.59;;;8.99;100.00
70445;BME280;57902;49.638;11.070;2023-03-25T11:54:59;97517.50;;;9.41;90.91
70445;BME280;57902;49.638;11.070;2023-03-25T11:57:29;97535.38;;;9.45;93.76
70445;BME280;57902;49.638;11.070;2023-03-25T12:00:26;97534.03;;;9.81;87.55
70445;BME280;57902;49.638;11.070;2023-03-25T12:02:59;97515.63;;;9.90;88.84
70445;BME280;57902;49.638;11.070;2023-03-25T12:05:26;97528.75;;;9.84;88.48
70445;BME280;57902;49.638;11.070;2023-03-25T12:08:02;97522.91;;;10.23;88.12
70445;BME280;57902;49.638;11.070;2023-03-25T12:13:09;97512.63;;;10.66;86.23
70445;BME280;57902;49.638;11.070;2023-03-25T12:22:08;97488.63;;;11.03;82.21
70445;BME280;57902;49.638;11.070;2023-03-25T12:25:05;97482.03;;;11.17;81.45
70445;BME280;57902;49.638;11.070;2023-03-25T12:34:02;97466.75;;;11.31;73.75
70445;BME280;57902;49.638;11.070;2023-03-25T12:42:47;97473.53;;;11.89;69.82
70445;BME280;57902;49.638;11.070;2023-03-25T12:51:11;97449.66;;;11.29;68.60
70445;BME280;57902;49.638;11.070;2023-03-25T12:59:19;97481.84;;;10.82;76.07
70445;BME280;57902;49.638;11.070;2023-03-25T13:07:17;97469.88;;;9.31;86.54
70445;BME280;57902;49.638;11.070;2023-03-25T13:12:56;97479.94;;;8.89;94.64
70445;BME280;57902;49.638;11.070;2023-03-25T13:15:33;97481.34;;;8.49;100.00
70445;BME280;57902;49.638;11.070;2023-03-25T13:18:08;97475.47;;;8.71;97.32
70445;BME280;57902;49.638;11.070;2023-03-25T13:23:42;97470.72;;;8.84;100.00
70445;BME280;57902;49.638;11.070;2023-03-25T13:26:25;97530.50;;;8.89;100.00
70445;BME280;57902;49.638;11.070;2023-03-25T13:29:03;97543.53;;;8.84;94.72
70445;BME280;57902;49.638;11.070;2023-03-25T13:31:36;97576.47;;;8.46;95.23
70445;BME280;57902;49.638;11.070;2023-03-25T13:34:19;97565.19;;;7.95;96.56
70445;BME280;57902;49.638;11.070;2023-03-25T13:39:55;97552.41;;;7.35;99.18
70445;BME280;57902;49.638;11.070;2023-03-25T13:42:27;97541.25;;;7.07;100.00
70445;BME280;57902;49.638;11.070;2023-03-25T13:44:58;97554.28;;;6.99;100.00
70445;BME280;57902;49.638;11.070;2023-03-25T13:47:31;97547.03;;;6.82;100.00
70445;BME280;57902;49.638;11.070;2023-03-25T13:50:04;97533.94;;;6.93;100.00
70445;BME280;57902;49.638;11.070;2023-03-25T13:52:37;97528.50;;;7.05;100.00
70445;BME280;57902;49.638;11.070;2023-03-25T13:55:16;97515.84;;;7.29;100.00
70445;BME280;57902;49.638;11.070;2023-03-25T13:58:09;97504.66;;;7.61;100.00
70445;BME280;57902;49.638;11.070;2023-03-25T14:03:42;97515.91;;;8.39;100.00
70445;BME280;57902;49.638;11.070;2023-03-25T14:14:35;97546.47;;;8.99;99.32
70445;BME280;57902;49.638;11.070;2023-03-25T14:17:04;97540.09;;;9.09;97.75
70445;BME280;57902;49.638;11.070;2023-03-25T14:19:38;97503.81;;;8.93;96.14
70445;BME280;57902;49.638;11.070;2023-03-25T14:22:15;97511.38;;;9.21;97.94
70445;BME280;57902;49.638;11.070;2023-03-25T14:24:44;97514.50;;;9.30;99.22
70445;BME280;57902;49.638;11.070;2023-03-25T14:27:20;97517.63;;;9.14;100.00
70445;BME280;57902;49.638;11.070;2023-03-25T14:32:40;97511.84;;;9.55;91.69
70445;BME280;57902;49.638;11.070;2023-03-25T14:43:38;97504.59;;;9.64;90.01
70445;BME280;57902;49.638;11.070;2023-03-25T14:48:48;97514.13;;;9.62;89.76
70445;BME280;57902;49.638;11.070;2023-03-25T14:51:44;97512.38;;;9.63;87.25
70445;BME280;57902;49.638;11.070;2023-03-25T14:56:55;97509.47;;;9.72;87.63
70445;BME280;57902;49.638;11.070;2023-03-25T14:59:38;97503.31;;;9.76;86.93
70445;BME280;57902;49.638;11.070;2023-03-25T15:02:14;97507.72;;;9.73;87.45
70445;BME280;57902;49.638;11.070;2023-03-25T15:04:42;97501.81;;;9.93;84.73
70445;BME280;57902;49.638;11.070;2023-03-25T15:07:16;97492.75;;;10.05;84.30
70445;BME280;57902;49.638;11.070;2023-03-25T15:09:53;97500.16;;;10.12;80.80
70445;BME280;57902;49.638;11.070;2023-03-25T15:12:23;97491.03;;;10.26;80.43
70445;BME280;57902;49.638;11.070;2023-03-25T15:14:55;97481.94;;;10.17;83.84
70445;BME280;57902;49.638;11.070;2023-03-25T15:17:41;97478.88;;;10.29;80.53
70445;BME280;57902;49.638;11.070;2023-03-25T15:25:53;97491.63;;;10.32;79.72
70445;BME280;57902;49.638;11.070;2023-03-25T15:28:39;97484.63;;;10.36;78.83
70445;BME280;57902;49.638;11.070;2023-03-25T15:31:18;97490.38;;;10.43;77.21